Time;durP1;ratioP1;P1;durP2;ratioP2;P2;SDS_P1;SDS_P2;PMS_P1;PMS_P2;Temp;Humidity;BMP_temperature;BMP_pressure;BME280_temperature;BME280_humidity;BME280_pressure;Samples;Min_cycle;Max_cycle;Signal;HPM_P1;HPM_P2
2020/12/25 00:00:40;;;;;;;20.75;14.00;;;;;;;19.60;40.20;94634.03;5023191;28;20025;-77
2020/12/25 00:03:06;;;;;;;20.90;13.23;;;;;;;19.64;39.91;94624.44;5006848;28;20029;-77
2020/12/25 00:05:31;;;;;;;20.77;13.57;;;;;;;19.64;39.85;94618.25;5024713;28;20087;-78
2020/12/25 00:07:57;;;;;;;19.88;12.95;;;;;;;19.55;40.14;94599.56;5023807;28;20049;-76
2020/12/25 00:10:22;;;;;;;20.05;13.10;;;;;;;19.61;39.93;94603.00;5040297;28;20038;-77
2020/12/25 00:12:47;;;;;;;18.83;12.30;;;;;;;19.62;40.00;94613.34;5025316;28;20042;-77
2020/12/25 00:15:13;;;;;;;19.30;12.88;;;;;;;19.62;40.00;94615.31;5025815;28;20017;-77
2020/12/25 00:17:38;;;;;;;20.45;12.95;;;;;;;19.64;39.87;94620.97;5025102;28;20439;-76
2020/12/25 00:20:05;;;;;;;18.35;12.15;;;;;;;19.62;39.91;94620.72;5023636;28;20083;-77
2020/12/25 00:22:30;;;;;;;18.02;12.35;;;;;;;19.41;39.83;94600.56;5027032;28;20573;-77
2020/12/25 00:24:55;;;;;;;19.25;12.48;;;;;;;19.43;39.85;94592.69;5023541;28;20040;-77
2020/12/25 00:27:21;;;;;;;18.67;12.23;;;;;;;19.61;40.01;94619.25;5024573;28;20022;-77
2020/12/25 00:29:46;;;;;;;21.15;12.32;;;;;;;19.58;39.80;94636.47;5025574;28;20036;-77
2020/12/25 00:32:12;;;;;;;17.48;11.93;;;;;;;19.61;39.69;94643.63;5024591;28;20091;-78
2020/12/25 00:34:37;;;;;;;19.33;12.02;;;;;;;19.60;39.87;94653.72;5024254;28;20474;-78
2020/12/25 00:37:02;;;;;;;18.83;11.52;;;;;;;19.55;39.90;94642.88;5023058;28;20033;-76
2020/12/25 00:39:28;;;;;;;18.67;11.85;;;;;;;19.55;39.90;94626.63;5023106;28;20886;-76
2020/12/25 00:41:53;;;;;;;18.75;11.52;;;;;;;19.56;39.96;94633.53;5040687;28;20029;-76
2020/12/25 00:44:19;;;;;;;17.30;12.32;;;;;;;19.59;39.72;94638.69;5040605;28;20033;-77
2020/12/25 00:46:44;;;;;;;18.73;11.23;;;;;;;19.55;39.62;94626.63;5024250;28;20028;-76
2020/12/25 00:49:13;;;;;;;17.67;11.85;;;;;;;19.54;39.63;94623.19;5022894;28;20029;-78
2020/12/25 00:51:38;;;;;;;17.00;10.88;;;;;;;19.54;39.59;94644.84;5022186;28;20118;-77
2020/12/25 00:54:03;;;;;;;17.80;11.73;;;;;;;19.54;39.74;94636.00;5023953;28;20033;-78
2020/12/25 00:56:29;;;;;;;15.02;11.07;;;;;;;19.56;39.76;94633.53;5024320;28;20116;-77
2020/12/25 00:58:54;;;;;;;15.10;10.38;;;;;;;19.55;40.08;94637.47;5004846;28;20037;-76
2020/12/25 01:01:20;;;;;;;17.40;11.15;;;;;;;19.51;39.77;94636.25;5022779;28;20021;-77
2020/12/25 01:03:45;;;;;;;16.58;11.18;;;;;;;19.55;39.48;94632.03;5038899;28;20032;-78
2020/12/25 01:06:18;;;;;;;16.10;10.30;;;;;;;19.55;39.82;94634.75;5023269;28;20040;-77
2020/12/25 01:08:45;;;;;;;16.40;10.35;;;;;;;19.50;39.71;94624.66;5021202;28;20037;-76
2020/12/25 01:11:10;;;;;;;16.83;11.32;;;;;;;19.53;39.40;94646.09;5006341;28;20451;-77
2020/12/25 01:13:36;;;;;;;17.77;11.13;;;;;;;19.46;39.63;94620.72;5024393;28;20017;-80
2020/12/25 01:16:05;;;;;;;16.98;11.07;;;;;;;19.49;39.83;94634.03;5022929;28;20097;-77
2020/12/25 01:18:31;;;;;;;16.50;11.20;;;;;;;19.49;39.60;94623.22;5041608;28;20124;-76
2020/12/25 01:20:57;;;;;;;18.55;11.20;;;;;;;19.49;39.46;94615.09;5029057;28;20496;-78
2020/12/25 01:23:22;;;;;;;16.23;10.52;;;;;;;19.46;39.59;94616.06;5025390;28;20029;-77
2020/12/25 01:25:48;;;;;;;17.38;10.73;;;;;;;19.49;40.06;94604.25;5023927;28;20473;-77
2020/12/25 01:28:13;;;;;;;15.07;10.77;;;;;;;19.43;39.61;94600.81;5038370;28;20448;-77
2020/12/25 01:30:38;;;;;;;16.75;11.13;;;;;;;19.45;39.84;94611.88;5021676;28;20025;-77
2020/12/25 01:33:04;;;;;;;17.02;10.93;;;;;;;19.43;39.31;94598.09;5022712;28;21757;-77
2020/12/25 01:35:29;;;;;;;17.92;10.93;;;;;;;19.46;39.95;94585.53;5021465;28;20048;-78
2020/12/25 01:37:55;;;;;;;16.65;10.60;;;;;;;19.47;39.85;94617.53;5023193;28;20040;-77
2020/12/25 01:40:20;;;;;;;18.35;10.82;;;;;;;19.18;39.91;94555.78;5022832;28;20030;-77
2020/12/25 01:42:45;;;;;;;16.45;10.40;;;;;;;19.47;39.54;94597.84;5022751;28;20029;-76
2020/12/25 01:45:11;;;;;;;15.48;10.15;;;;;;;19.44;39.62;94594.16;5021338;28;20410;-77
2020/12/25 01:47:36;;;;;;;19.08;11.20;;;;;;;19.40;39.56;94588.25;5022450;28;20501;-77
2020/12/25 01:50:02;;;;;;;14.88;10.07;;;;;;;19.42;39.48;94596.63;5005797;28;20127;-77
2020/12/25 01:52:27;;;;;;;17.00;11.13;;;;;;;19.40;39.73;94604.50;5037338;28;20026;-77
2020/12/25 01:54:53;;;;;;;16.83;10.93;;;;;;;19.39;39.42;94597.59;5021094;28;20032;-77
2020/12/25 01:57:18;;;;;;;16.75;11.25;;;;;;;19.40;39.84;94604.50;5037836;28;20025;-77
2020/12/25 01:59:44;;;;;;;14.70;10.30;;;;;;;19.41;39.58;94589.72;5021773;28;20501;-76
2020/12/25 02:02:09;;;;;;;16.20;10.65;;;;;;;19.36;39.63;94587.75;5003825;28;20029;-76
2020/12/25 02:04:35;;;;;;;14.85;10.15;;;;;;;19.41;39.74;94600.56;5020259;28;20048;-76
2020/12/25 02:07:00;;;;;;;15.93;10.48;;;;;;;19.40;39.64;94585.56;5022549;28;20053;-76
2020/12/25 02:09:26;;;;;;;16.35;10.98;;;;;;;19.34;39.76;94589.47;5021633;28;20029;-76
2020/12/25 02:11:52;;;;;;;15.57;10.23;;;;;;;19.39;39.52;94597.59;5039529;28;20025;-76
2020/12/25 02:14:17;;;;;;;17.52;10.82;;;;;;;19.41;39.42;94589.00;5021859;28;20026;-77
2020/12/25 02:16:42;;;;;;;15.90;9.50;;;;;;;19.40;39.28;94595.63;5020630;28;20037;-77
2020/12/25 02:19:08;;;;;;;14.50;9.95;;;;;;;19.33;39.51;94577.91;5021573;28;20037;-76
2020/12/25 02:21:34;;;;;;;16.10;9.77;;;;;;;19.32;39.58;94571.03;5022457;28;20566;-77
2020/12/25 02:23:59;;;;;;;18.70;10.98;;;;;;;19.37;39.71;94583.84;5023255;28;20029;-77
2020/12/25 02:26:24;;;;;;;14.57;10.20;;;;;;;19.33;39.45;94572.50;5020593;28;20018;-76
2020/12/25 02:28:50;;;;;;;15.70;10.40;;;;;;;19.37;39.45;94597.38;5020865;28;20026;-77
2020/12/25 02:31:15;;;;;;;14.00;9.77;;;;;;;19.36;39.80;94576.94;5006132;28;20790;-76
2020/12/25 02:33:41;;;;;;;15.73;9.80;;;;;;;19.31;39.46;94585.03;5005772;28;20036;-76
2020/12/25 02:36:06;;;;;;;14.48;9.75;;;;;;;19.35;39.63;94594.41;5020938;28;20072;-76
2020/12/25 02:38:31;;;;;;;14.57;10.00;;;;;;;19.37;39.43;94583.84;5022499;28;20482;-76
2020/12/25 02:40:57;;;;;;;14.35;9.45;;;;;;;19.29;39.53;94593.66;5024408;28;20021;-79
2020/12/25 02:43:22;;;;;;;13.07;9.02;;;;;;;19.33;39.84;94594.16;5022126;28;20017;-77
2020/12/25 02:45:48;;;;;;;15.27;9.43;;;;;;;19.33;39.38;94591.44;5021660;28;20482;-76
2020/12/25 02:48:13;;;;;;;15.68;9.32;;;;;;;19.33;39.60;94571.78;5022809;28;20022;-76
2020/12/25 02:50:38;;;;;;;14.35;9.40;;;;;;;19.29;39.57;94558.47;5022772;28;20025;-77
2020/12/25 02:53:04;;;;;;;13.32;8.90;;;;;;;19.29;39.50;94560.44;5021773;28;20030;-77
2020/12/25 02:55:29;;;;;;;15.27;9.90;;;;;;;19.23;39.56;94557.72;5025835;28;20021;-77
2020/12/25 02:57:55;;;;;;;15.00;9.40;;;;;;;19.28;39.90;94554.31;5023411;28;20026;-77
2020/12/25 03:00:20;;;;;;;14.18;9.20;;;;;;;19.29;39.47;94561.19;5021118;28;20033;-77
2020/12/25 03:02:45;;;;;;;14.65;9.23;;;;;;;19.29;39.25;94557.75;5022869;28;20393;-77
2020/12/25 03:05:11;;;;;;;14.90;8.85;;;;;;;19.20;39.04;94536.34;5021983;28;20013;-77
2020/12/25 03:07:36;;;;;;;16.33;9.38;;;;;;;19.24;39.24;94548.41;5024229;28;20037;-77
2020/12/25 03:10:02;;;;;;;14.00;9.30;;;;;;;19.18;39.42;94539.53;5042170;28;20482;-77
2020/12/25 03:12:27;;;;;;;14.00;9.00;;;;;;;19.03;39.38;94517.41;5024546;28;20482;-77
2020/12/25 03:14:52;;;;;;;14.48;8.90;;;;;;;19.18;39.58;94533.41;5023977;28;20026;-76
2020/12/25 03:17:18;;;;;;;14.02;8.07;;;;;;;19.22;39.55;94548.16;5025039;28;20029;-77
2020/12/25 03:19:43;;;;;;;13.75;8.93;;;;;;;19.19;39.43;94541.03;5026233;28;20029;-77
2020/12/25 03:22:09;;;;;;;12.90;8.30;;;;;;;19.21;39.66;94543.97;5025384;28;20747;-77
2020/12/25 03:24:34;;;;;;;15.75;9.38;;;;;;;19.22;39.81;94540.03;5025367;28;20026;-79
2020/12/25 03:26:59;;;;;;;13.55;8.63;;;;;;;19.24;39.65;94542.97;5023458;28;20029;-75
2020/12/25 03:29:25;;;;;;;12.63;8.63;;;;;;;19.24;39.56;94542.25;5024860;28;20048;-76
2020/12/25 03:31:50;;;;;;;12.52;8.40;;;;;;;19.24;40.28;94526.75;5025535;28;20133;-77
2020/12/25 03:34:16;;;;;;;13.20;8.65;;;;;;;19.18;39.43;94528.72;5025402;28;20024;-76
2020/12/25 03:36:42;;;;;;;14.02;9.23;;;;;;;19.24;39.68;94542.97;5025127;28;20037;-78
2020/12/25 03:39:08;;;;;;;14.30;9.23;;;;;;;19.23;39.57;94525.25;5028421;28;20021;-77
2020/12/25 03:41:33;;;;;;;13.73;8.45;;;;;;;19.21;39.42;94532.41;5028526;28;20037;-77
2020/12/25 03:43:59;;;;;;;14.55;8.95;;;;;;;19.18;39.53;94528.72;5024344;28;20029;-77
2020/12/25 03:46:24;;;;;;;14.73;8.80;;;;;;;19.21;39.62;94532.41;5025404;28;20025;-77
2020/12/25 03:48:50;;;;;;;14.65;9.02;;;;;;;19.19;39.40;94530.19;5026824;28;20033;-87
2020/12/25 03:51:16;;;;;;;12.90;8.80;;;;;;;19.24;39.55;94521.31;5023464;28;20101;-77
2020/12/25 03:53:41;;;;;;;13.80;8.38;;;;;;;19.32;39.65;94522.28;5023575;28;20513;-76
2020/12/25 03:56:07;;;;;;;12.27;9.00;;;;;;;19.37;39.45;94513.44;5023818;28;20037;-77
2020/12/25 03:58:32;;;;;;;13.15;8.60;;;;;;;19.50;39.37;94516.38;5023307;28;20026;-78
2020/12/25 04:00:57;;;;;;;12.68;8.10;;;;;;;19.55;39.30;94523.72;5026304;28;20030;-76
2020/12/25 04:03:23;;;;;;;11.65;7.93;;;;;;;19.57;39.06;94515.88;5024746;28;20029;-77
2020/12/25 04:05:48;;;;;;;13.50;8.48;;;;;;;19.67;39.09;94525.19;5023476;28;20180;-77
2020/12/25 04:08:14;;;;;;;13.10;8.27;;;;;;;19.73;39.31;94523.19;5039779;28;20103;-77
2020/12/25 04:10:39;;;;;;;12.75;8.20;;;;;;;19.78;39.10;94519.75;5025786;28;20045;-76
2020/12/25 04:13:07;;;;;;;12.88;8.02;;;;;;;19.77;39.09;94513.56;5040554;28;20038;-76
2020/12/25 04:15:33;;;;;;;13.45;8.55;;;;;;;19.82;38.95;94514.78;5023702;28;20040;-77
2020/12/25 04:17:58;;;;;;;11.32;7.80;;;;;;;19.93;38.96;94536.47;5006835;28;20025;-77
2020/12/25 04:20:24;;;;;;;13.48;8.55;;;;;;;19.96;38.72;94530.78;5025366;28;20429;-78
2020/12/25 04:22:49;;;;;;;11.68;8.10;;;;;;;20.03;38.39;94528.31;5024442;28;20036;-75
2020/12/25 04:25:14;;;;;;;12.18;8.10;;;;;;;20.07;38.71;94528.03;5023190;28;20033;-77
2020/12/25 04:27:40;;;;;;;10.93;7.65;;;;;;;20.15;38.87;94532.44;5024061;28;20053;-78
2020/12/25 04:30:06;;;;;;;12.63;8.25;;;;;;;20.20;38.36;94539.81;5024392;28;20026;-77
2020/12/25 04:32:31;;;;;;;11.77;8.23;;;;;;;20.21;38.79;94530.44;5026179;28;20025;-77
2020/12/25 04:34:57;;;;;;;12.00;7.80;;;;;;;20.24;38.79;94528.72;5022295;28;20017;-77
2020/12/25 04:37:22;;;;;;;10.40;7.60;;;;;;;20.34;38.57;94541.47;5022650;28;20504;-77
2020/12/25 04:39:47;;;;;;;11.27;7.38;;;;;;;20.36;38.22;94541.72;5022279;28;20036;-77
2020/12/25 04:42:13;;;;;;;11.38;7.50;;;;;;;20.38;38.52;94550.09;4940501;28;20025;-78
2020/12/25 04:44:38;;;;;;;10.73;7.78;;;;;;;20.42;38.47;94550.56;5040844;28;20036;-77
2020/12/25 04:47:08;;;;;;;9.27;6.90;;;;;;;20.22;38.34;94512.97;5021982;28;20017;-77
2020/12/25 04:49:35;;;;;;;11.60;8.02;;;;;;;20.39;38.29;94535.28;5022971;28;20060;-77
2020/12/25 04:52:00;;;;;;;13.07;9.13;;;;;;;20.47;38.17;94541.66;5021370;28;20116;-77
2020/12/25 04:54:25;;;;;;;11.63;7.80;;;;;;;20.53;38.37;94551.22;5023556;28;20028;-76
2020/12/25 04:56:51;;;;;;;13.13;8.05;;;;;;;20.57;37.91;94557.13;5022191;28;20537;-77
2020/12/25 04:59:16;;;;;;;11.85;7.82;;;;;;;20.62;37.68;94531.22;5023394;28;20544;-77
2020/12/25 05:01:42;;;;;;;11.70;7.97;;;;;;;20.65;37.81;94541.06;5026478;28;20494;-76
2020/12/25 05:04:17;;;;;;;11.35;7.85;;;;;;;20.66;37.83;94542.56;5022506;28;20104;-76
2020/12/25 05:06:43;;;;;;;10.55;7.05;;;;;;;20.70;37.73;94548.44;5021312;28;20029;-78
2020/12/25 05:09:08;;;;;;;12.90;7.70;;;;;;;20.72;37.73;94535.16;5005697;28;20029;-76
2020/12/25 05:11:33;;;;;;;11.93;8.40;;;;;;;20.72;37.78;94546.00;5025134;28;20736;-77
2020/12/25 05:13:59;;;;;;;11.52;7.75;;;;;;;20.74;37.53;94555.09;5021444;28;20033;-77
2020/12/25 05:16:24;;;;;;;11.23;7.93;;;;;;;20.71;37.74;94549.94;5005651;28;20101;-76
2020/12/25 05:18:51;;;;;;;12.55;8.18;;;;;;;20.76;37.52;94554.59;5023773;28;20040;-77
2020/12/25 05:21:18;;;;;;;10.15;7.50;;;;;;;20.80;37.52;94552.34;5022831;28;20037;-79
2020/12/25 05:23:44;;;;;;;11.43;8.10;;;;;;;20.79;37.63;94556.28;5023625;28;20025;-77
2020/12/25 05:26:10;;;;;;;11.80;8.13;;;;;;;20.84;37.48;94552.81;5022876;28;20041;-77
2020/12/25 05:28:37;;;;;;;11.55;7.85;;;;;;;20.85;37.53;94549.59;5022341;28;20040;-77
2020/12/25 05:31:03;;;;;;;12.88;7.53;;;;;;;20.87;37.42;94546.38;5022233;28;20056;-77
2020/12/25 05:33:29;;;;;;;11.80;7.88;;;;;;;20.88;37.50;94537.00;5022779;28;20497;-78
2020/12/25 05:35:57;;;;;;;11.27;7.47;;;;;;;20.90;37.36;94545.38;5004719;28;20786;-77
2020/12/25 05:38:23;;;;;;;10.43;7.03;;;;;;;20.86;37.28;94515.06;5037194;28;20030;-78
2020/12/25 05:40:48;;;;;;;11.40;7.20;;;;;;;20.94;37.07;94540.41;5005064;28;20095;-84
2020/12/25 05:43:15;;;;;;;11.52;6.85;;;;;;;20.90;37.24;94523.69;5008910;28;20102;-77
2020/12/25 05:45:41;;;;;;;10.88;7.03;;;;;;;20.95;37.09;94536.47;5004711;28;20021;-78
2020/12/25 05:48:06;;;;;;;10.25;7.35;;;;;;;20.92;36.77;94548.31;5024570;28;20052;-81
2020/12/25 05:50:32;;;;;;;10.30;6.90;;;;;;;20.94;36.74;94551.25;5004934;28;20036;-77
2020/12/25 05:52:57;;;;;;;11.43;6.93;;;;;;;20.92;37.14;94559.19;5022619;28;20032;-77
2020/12/25 05:55:23;;;;;;;10.32;7.07;;;;;;;20.90;37.28;94550.81;5023320;28;20402;-78
2020/12/25 05:57:52;;;;;;;13.07;7.30;;;;;;;20.88;37.06;94558.69;5027353;28;20036;-78
2020/12/25 06:00:18;;;;;;;12.20;7.20;;;;;;;20.92;37.29;94542.91;5031124;28;20037;-78
2020/12/25 06:02:47;;;;;;;11.40;7.80;;;;;;;20.83;36.80;94556.78;5028462;28;20038;-76
2020/12/25 06:05:13;;;;;;;11.57;8.13;;;;;;;20.87;36.81;94568.09;5024360;28;20026;-78
2020/12/25 06:07:49;;;;;;;11.80;7.85;;;;;;;20.71;36.62;94561.50;5021030;28;20053;-78
2020/12/25 06:10:16;;;;;;;12.20;8.23;;;;;;;20.65;37.03;94565.47;5021598;28;20152;-77
2020/12/25 06:12:41;;;;;;;12.52;7.97;;;;;;;20.63;36.80;94565.25;5024660;28;20037;-78
2020/12/25 06:15:09;;;;;;;12.10;8.65;;;;;;;20.50;37.49;94562.34;5023264;28;20382;-77
2020/12/25 06:17:36;;;;;;;13.63;9.05;;;;;;;20.50;36.95;94578.63;5021547;28;20358;-77
2020/12/25 06:20:03;;;;;;;12.32;9.00;;;;;;;20.45;37.02;94571.25;4972036;28;20072;-77
2020/12/25 06:22:38;;;;;;;12.55;8.63;;;;;;;20.43;36.72;94579.13;5043688;28;20025;-77
2020/12/25 06:25:07;;;;;;;12.23;8.80;;;;;;;20.40;37.16;94584.84;5047264;28;20025;-77
2020/12/25 06:27:32;;;;;;;13.55;8.45;;;;;;;20.25;36.33;94568.88;5029440;28;20052;-76
2020/12/25 06:29:58;;;;;;;11.50;8.48;;;;;;;20.33;36.89;94591.53;5045476;28;20973;-77
2020/12/25 06:32:24;;;;;;;11.68;8.07;;;;;;;20.23;36.65;94587.59;5028763;28;20045;-77
2020/12/25 06:34:50;;;;;;;10.82;8.02;;;;;;;20.07;36.83;94564.03;5047356;28;20075;-76
2020/12/25 06:37:16;;;;;;;11.57;7.88;;;;;;;20.18;36.83;94599.22;5045131;28;20488;-77
2020/12/25 06:39:52;;;;;;;10.93;8.10;;;;;;;20.18;36.93;94596.50;5047161;28;20018;-77
2020/12/25 06:42:23;;;;;;;11.13;7.90;;;;;;;20.19;37.15;94602.66;5037577;28;20021;-76
2020/12/25 06:44:49;;;;;;;12.13;7.63;;;;;;;20.17;37.47;94600.44;5053388;28;20153;-76
2020/12/25 06:47:29;;;;;;;10.75;7.68;;;;;;;20.14;37.58;94598.72;5050324;28;20024;-77
2020/12/25 06:49:54;;;;;;;10.98;7.97;;;;;;;20.11;37.05;94597.00;5052275;28;20064;-77
2020/12/25 06:52:29;;;;;;;11.77;7.10;;;;;;;20.12;37.35;94598.50;5053987;28;20410;-77
2020/12/25 06:54:55;;;;;;;11.32;7.13;;;;;;;20.12;37.42;94603.91;5054408;28;20035;-76
2020/12/25 06:57:27;;;;;;;10.95;7.35;;;;;;;20.05;37.68;94588.16;5052128;28;20025;-78
2020/12/25 06:59:53;;;;;;;13.13;7.75;;;;;;;20.09;37.16;94587.91;5052297;28;20040;-76
2020/12/25 07:02:19;;;;;;;12.00;8.35;;;;;;;20.06;37.59;94578.81;5070801;28;20040;-77
2020/12/25 07:04:45;;;;;;;11.70;7.55;;;;;;;20.07;37.60;94596.56;5032240;28;20025;-77
2020/12/25 07:07:10;;;;;;;10.93;6.95;;;;;;;20.06;37.62;94583.50;5050987;28;20048;-76
2020/12/25 07:09:44;;;;;;;11.13;7.18;;;;;;;20.02;37.72;94583.72;5049209;28;20412;-77
2020/12/25 07:12:18;;;;;;;10.60;7.70;;;;;;;19.97;37.72;94574.88;5046888;28;20048;-75
2020/12/25 07:14:44;;;;;;;10.88;6.93;;;;;;;20.03;37.71;94574.38;5054654;28;20082;-78
2020/12/25 07:17:09;;;;;;;10.65;6.90;;;;;;;19.99;37.73;94579.31;5067726;28;20397;-77
2020/12/25 07:19:35;;;;;;;11.77;6.95;;;;;;;19.87;37.54;94560.16;5055584;28;20855;-76
2020/12/25 07:22:00;;;;;;;9.98;6.78;;;;;;;20.00;37.69;94580.78;5065316;28;20595;-77
2020/12/25 07:24:26;;;;;;;9.85;7.13;;;;;;;19.96;37.70;94573.44;5052133;28;20560;-76
2020/12/25 07:26:55;;;;;;;11.93;7.25;;;;;;;19.94;37.98;94575.88;5034631;28;20020;-77
2020/12/25 07:29:20;;;;;;;9.98;6.78;;;;;;;19.96;38.28;94573.44;5045292;28;20451;-77
2020/12/25 07:31:50;;;;;;;10.02;6.95;;;;;;;19.99;37.78;94594.09;5051975;28;20035;-76
2020/12/25 07:34:25;;;;;;;9.93;7.00;;;;;;;19.99;38.15;94594.09;5065633;28;20036;-77
2020/12/25 07:36:52;;;;;;;10.57;7.63;;;;;;;19.75;38.03;94569.50;5050567;28;20033;-77
2020/12/25 07:39:18;;;;;;;10.10;7.03;;;;;;;19.97;37.90;94596.56;5037035;28;20067;-77
2020/12/25 07:41:44;;;;;;;12.43;8.55;;;;;;;19.98;38.16;94609.63;5050946;28;20095;-77
2020/12/25 07:44:09;;;;;;;12.75;7.35;;;;;;;19.99;37.78;94604.94;5051827;28;20025;-75
2020/12/25 07:46:37;;;;;;;13.10;8.82;;;;;;;19.98;38.17;94608.88;5051238;28;22338;-76
2020/12/25 07:49:02;;;;;;;12.98;9.35;;;;;;;19.96;38.16;94603.22;5029171;28;20362;-77
2020/12/25 07:51:28;;;;;;;17.42;10.60;;;;;;;19.91;38.10;94599.31;5047549;28;20066;-76
2020/12/25 07:53:57;;;;;;;15.02;9.70;;;;;;;19.93;37.95;94601.50;5045441;28;20025;-77
2020/12/25 07:56:25;;;;;;;19.30;11.35;;;;;;;19.85;38.10;94589.66;5036157;28;20117;-76
2020/12/25 07:58:51;;;;;;;17.02;10.60;;;;;;;19.89;38.22;94590.19;5046351;28;20033;-76
2020/12/25 08:01:20;;;;;;;16.83;10.65;;;;;;;19.91;38.22;94609.38;5050429;28;20495;-77
2020/12/25 08:03:46;;;;;;;19.50;12.35;;;;;;;19.88;38.26;94583.28;5067123;28;20029;-76
2020/12/25 08:06:16;;;;;;;21.48;12.05;;;;;;;19.92;37.97;94621.69;5032481;28;20028;-77
2020/12/25 08:08:45;;;;;;;16.88;11.55;;;;;;;19.90;38.08;94591.66;5049504;28;20035;-75
2020/12/25 08:11:12;;;;;;;19.25;12.05;;;;;;;19.83;38.19;94597.56;5046092;28;20036;-76
2020/12/25 08:13:37;;;;;;;20.83;13.02;;;;;;;19.90;38.09;94618.75;5016785;28;20033;-78
2020/12/25 08:16:03;;;;;;;19.40;12.30;;;;;;;19.67;38.20;94582.06;5017781;28;20469;-76
2020/12/25 08:18:28;;;;;;;20.38;13.95;;;;;;;19.84;38.18;94609.88;5045645;28;20025;-76
2020/12/25 08:20:54;;;;;;;21.42;13.07;;;;;;;19.90;38.19;94608.66;5055137;28;20033;-75
2020/12/25 08:23:19;;;;;;;20.05;13.52;;;;;;;19.84;38.19;94620.72;5030443;28;20749;-75
2020/12/25 08:25:51;;;;;;;21.25;13.98;;;;;;;19.87;38.12;94609.66;5046145;28;20009;-76
2020/12/25 08:28:16;;;;;;;21.42;13.45;;;;;;;19.90;38.44;94591.66;5044272;28;20035;-76
2020/12/25 08:30:42;;;;;;;23.35;15.30;;;;;;;19.82;38.18;94617.75;5066524;28;20486;-76
2020/12/25 08:33:07;;;;;;;21.67;14.40;;;;;;;19.86;38.20;94591.16;5049538;28;20021;-76
2020/12/25 08:35:32;;;;;;;23.50;14.82;;;;;;;19.74;38.57;94584.28;5053542;28;20418;-75
2020/12/25 08:38:00;;;;;;;22.20;14.15;;;;;;;19.85;38.08;94601.25;5054205;28;20476;-78
2020/12/25 08:40:30;;;;;;;20.83;13.38;;;;;;;19.78;38.50;94576.63;5045848;28;20482;-77
2020/12/25 08:43:04;;;;;;;21.15;14.52;;;;;;;19.81;38.59;94600.03;5032117;28;20081;-76
2020/12/25 08:45:29;;;;;;;21.83;14.40;;;;;;;19.87;38.78;94590.69;5051141;28;20040;-77
2020/12/25 08:48:13;;;;;;;19.67;12.70;;;;;;;19.90;38.33;94602.50;5044408;28;20033;-77
2020/12/25 08:50:40;;;;;;;23.83;15.02;;;;;;;19.73;38.52;94577.38;5046998;28;20036;-76
2020/12/25 08:53:18;;;;;;;20.38;13.43;;;;;;;19.91;38.58;94588.47;5045284;28;20112;-75
2020/12/25 08:55:45;;;;;;;21.20;13.27;;;;;;;19.91;38.45;94604.72;5048857;28;20033;-78
2020/12/25 08:58:10;;;;;;;18.85;12.45;;;;;;;19.86;38.62;94583.00;5050411;28;20051;-74
2020/12/25 09:00:36;;;;;;;18.73;12.88;;;;;;;19.89;38.52;94588.19;5050567;28;20104;-77
2020/12/25 09:03:01;;;;;;;18.15;12.65;;;;;;;19.93;38.61;94598.81;5044858;28;20044;-77
2020/12/25 09:05:27;;;;;;;18.45;12.15;;;;;;;19.87;38.67;94587.25;5050132;28;20024;-75
2020/12/25 09:07:52;;;;;;;18.40;11.90;;;;;;;19.86;38.90;94520.69;5052523;28;20501;-76
2020/12/25 09:10:17;;;;;;;17.25;11.63;;;;;;;19.92;38.58;94567.50;5045807;28;20393;-78
2020/12/25 09:12:43;;;;;;;19.95;12.65;;;;;;;19.83;38.63;94529.81;5062976;28;20036;-77
2020/12/25 09:15:08;;;;;;;15.60;11.02;;;;;;;19.92;38.61;94551.25;5049552;28;20025;-75
2020/12/25 09:17:34;;;;;;;18.15;11.55;;;;;;;19.93;38.46;94555.44;5048221;28;20481;-77
2020/12/25 09:19:59;;;;;;;17.27;10.75;;;;;;;19.92;38.87;94543.13;5048938;28;20830;-76
2020/12/25 09:22:25;;;;;;;15.93;11.43;;;;;;;19.92;38.76;94567.50;5043330;28;20033;-76
2020/12/25 09:24:50;;;;;;;16.33;10.98;;;;;;;19.94;38.50;94565.03;5052731;28;20024;-76
2020/12/25 09:27:15;;;;;;;16.05;10.75;;;;;;;19.92;38.87;94537.72;5047778;28;20477;-76
2020/12/25 09:29:41;;;;;;;15.75;10.40;;;;;;;19.93;38.60;94509.38;5046627;28;20036;-76
2020/12/25 09:32:07;;;;;;;15.40;10.63;;;;;;;19.94;38.77;94537.94;5048974;28;20028;-75
2020/12/25 09:34:32;;;;;;;18.92;11.15;;;;;;;19.92;38.50;94537.72;5050854;28;20504;-76
2020/12/25 09:36:58;;;;;;;16.45;10.70;;;;;;;19.92;38.80;94507.91;5027560;28;20039;-75
2020/12/25 09:39:23;;;;;;;17.42;10.77;;;;;;;19.98;38.83;94514.03;5046370;28;20021;-76
2020/12/25 09:41:49;;;;;;;17.95;11.90;;;;;;;19.94;38.96;94521.69;5052125;28;20082;-76
2020/12/25 09:44:14;;;;;;;17.90;11.20;;;;;;;19.93;38.53;94509.38;5047630;28;20142;-77
2020/12/25 09:46:43;;;;;;;16.77;10.90;;;;;;;19.99;38.45;94518.22;5066369;28;20025;-76
2020/12/25 09:49:08;;;;;;;17.40;11.60;;;;;;;20.02;38.92;94510.56;5048210;28;20115;-77
2020/12/25 09:51:34;;;;;;;16.50;10.50;;;;;;;19.93;38.80;94522.94;5051356;28;20024;-77
2020/12/25 09:53:59;;;;;;;17.88;10.27;;;;;;;19.79;38.68;94454.25;5047675;28;20036;-76
2020/12/25 09:56:25;;;;;;;16.25;10.23;;;;;;;20.06;38.55;94513.75;5045865;28;20029;-76
2020/12/25 09:58:50;;;;;;;16.35;10.88;;;;;;;20.07;38.74;94488.13;5050157;28;20024;-76
2020/12/25 10:01:16;;;;;;;16.25;9.75;;;;;;;19.92;38.70;94480.81;5048105;28;20404;-76
2020/12/25 10:03:41;;;;;;;16.50;9.77;;;;;;;20.02;38.73;94480.75;5045263;28;20102;-76
2020/12/25 10:06:07;;;;;;;16.25;10.00;;;;;;;20.10;38.57;94486.38;5045507;28;20064;-76
2020/12/25 10:08:32;;;;;;;15.05;9.82;;;;;;;20.10;38.96;94497.97;5047832;28;20107;-77
2020/12/25 10:10:57;;;;;;;13.27;9.20;;;;;;;20.12;38.82;94479.25;4964963;28;20045;-76
2020/12/25 10:13:24;;;;;;;12.70;8.98;;;;;;;20.14;38.85;94487.59;5047786;28;20402;-76
2020/12/25 10:15:49;;;;;;;14.77;9.38;;;;;;;20.03;38.69;94436.16;5061915;28;20024;-77
2020/12/25 10:18:15;;;;;;;13.55;9.00;;;;;;;20.16;38.61;94463.47;5051273;28;20455;-77
2020/12/25 10:20:40;;;;;;;14.63;8.95;;;;;;;20.17;38.51;94464.19;5053954;28;20506;-77
2020/12/25 10:23:06;;;;;;;14.63;9.73;;;;;;;20.20;38.35;94457.75;5050877;28;20025;-76
2020/12/25 10:25:31;;;;;;;12.50;8.82;;;;;;;20.21;38.29;94470.81;5050807;28;20024;-77
2020/12/25 10:27:58;;;;;;;14.00;9.02;;;;;;;20.22;38.48;94447.91;5048405;28;20037;-79
2020/12/25 10:30:23;;;;;;;12.23;8.80;;;;;;;20.12;38.72;94441.28;5051390;28;20052;-77
2020/12/25 10:32:48;;;;;;;14.27;9.15;;;;;;;20.17;38.56;94437.81;5030026;28;20025;-77
2020/12/25 10:35:14;;;;;;;13.65;8.75;;;;;;;20.22;38.44;94426.22;5064764;28;20033;-78
2020/12/25 10:37:39;;;;;;;12.65;8.48;;;;;;;20.27;38.27;94457.97;5048815;28;20025;-76
2020/12/25 10:40:05;;;;;;;12.88;8.73;;;;;;;20.09;38.72;94404.34;5050530;28;20013;-76
2020/12/25 10:42:30;;;;;;;15.40;9.13;;;;;;;20.30;38.51;94443.41;5054085;28;20032;-78
2020/12/25 10:44:55;;;;;;;13.38;8.20;;;;;;;20.29;38.53;94444.63;5052391;28;20017;-78
2020/12/25 10:47:21;;;;;;;13.02;8.23;;;;;;;20.34;38.33;94416.75;5049018;28;20025;-77
2020/12/25 10:49:46;;;;;;;13.98;9.45;;;;;;;20.36;38.09;94444.09;5047187;28;20500;-77
2020/12/25 10:52:12;;;;;;;12.60;8.75;;;;;;;20.37;38.29;94425.84;5053814;28;20485;-77
2020/12/25 10:54:37;;;;;;;11.77;8.57;;;;;;;20.37;38.29;94396.75;5053878;28;20618;-78
2020/12/25 10:57:02;;;;;;;11.63;8.52;;;;;;;20.41;38.05;94408.06;5053214;28;20036;-76
2020/12/25 10:59:28;;;;;;;12.98;8.38;;;;;;;20.40;38.21;94420.16;5052949;28;20040;-77
2020/12/25 11:01:53;;;;;;;12.02;8.38;;;;;;;20.45;38.27;94413.97;5047268;28;20567;-77
2020/12/25 11:04:19;;;;;;;12.13;8.50;;;;;;;20.45;38.04;94413.22;5043591;28;20025;-76
2020/12/25 11:06:44;;;;;;;14.00;8.68;;;;;;;20.48;37.95;94407.53;5048863;28;20032;-77
2020/12/25 11:09:10;;;;;;;12.45;7.90;;;;;;;20.48;38.07;94412.97;5048957;28;20029;-77
2020/12/25 11:11:36;;;;;;;12.85;8.48;;;;;;;20.52;38.18;94397.13;5048996;28;20021;-77
2020/12/25 11:14:02;;;;;;;12.57;8.38;;;;;;;20.56;38.10;94397.59;5049620;28;20036;-76
2020/12/25 11:16:29;;;;;;;13.48;8.27;;;;;;;20.62;37.68;94395.59;5046804;28;20154;-77